Terminal Aerodrome Forecast
Issued by NWS

Home | Current Version | Previous Version | Text Only | Print | Product List | Glossary On
Versions: 1 2 3 4 5 6 7 8 9 10 11 12 13 14 15
000
FTUS43 KGRR 061136
TAFMKG
TAF
KMKG 061136Z 0612/0712 15005KT 6SM HZ SCT250
     FM061400 19012G20KT P6SM SKC
     FM070100 19012KT P6SM BKN100
     FM070600 21011KT 6SM -SHRA BR VCTS BKN025CB OVC050
     FM070800 28010KT 4SM -SHRA OVC015=

USA.gov is the U.S. government's official web portal to all federal, state and local government web resources and services.